Luminous Kobe-2 — JJ3868 — position and weather

sailwx.info

Track history (hours):
 
Tides and Currents Weather Stations Pressure Air Temp Water Temp Dewpoint Dewpoint Depression Visibility Wind Speed Wind Dir Waves Ship Positions

Luminous Kobe-2

Last reported at 2016-Jul-29 15:32 UTC. Time now 2016-Jul-29 15:59 UTC.
Position N 34°41' E 135°11'.

Length 105 m; draft 4.5 m.

Type: Passenger vessel. MMSI: 431000469.

Date/timePositionNaut miles runAvg speedWind from/ knotsBaromVisibWave heightAir tempDewpointWater temp
2016-Jul-29 15:32N 34°41' E 135°11'0 0.0
2016-Jul-29 14:32N 34°41' E 135°11'0 0.0
2016-Jul-29 13:32N 34°41' E 135°11'0 0.0
2016-Jul-29 12:32N 34°41' E 135°11'6 6.2
2016-Jul-29 11:33N 34°36' E 135°07'1 0.8
2016-Jul-29 10:33N 34°37' E 135°07'6 5.3
2016-Jul-29 09:31N 34°41' E 135°11'5 4.8
2016-Jul-29 08:33N 34°38' E 135°07'5 4.4
2016-Jul-29 07:30N 34°41' E 135°11'0 0.0
2016-Jul-29 06:30N 34°41' E 135°11'0 0.0
2016-Jul-29 05:24N 34°41' E 135°11'3 3.0
2016-Jul-29 04:33N 34°38' E 135°11'3 3.0
2016-Jul-29 03:33N 34°37' E 135°14'4 3.6
2016-Jul-29 02:23N 34°41' E 135°11'0 0.0
2016-Jul-29 01:29N 34°41' E 135°11'0 0.0
2016-Jul-29 00:29N 34°41' E 135°11'0 0.0
2016-Jul-28 23:29N 34°41' E 135°11'0 0.0
2016-Jul-28 22:23N 34°41' E 135°11'0 0.0
2016-Jul-28 21:23N 34°41' E 135°11'0 0.0
2016-Jul-28 20:29N 34°41' E 135°11'0 0.0
2016-Jul-28 19:29N 34°41' E 135°11'0 0.0
2016-Jul-28 18:17N 34°41' E 135°11'0 0.0
2016-Jul-28 17:29N 34°41' E 135°11'0 0.0
2016-Jul-28 16:29N 34°41' E 135°11'0 0.0
2016-Jul-28 15:29N 34°41' E 135°11'0 0.0
2016-Jul-28 14:29N 34°41' E 135°11'0 0.0
2016-Jul-28 13:29N 34°41' E 135°11'0 0.0
2016-Jul-28 12:29N 34°41' E 135°11'7 7.6
2016-Jul-28 11:33N 34°35' E 135°06'2 1.7
2016-Jul-28 10:33N 34°37' E 135°07'5 5.0
2016-Jul-28 09:28N 34°41' E 135°11'5 5.1
2016-Jul-28 08:33N 34°38' E 135°07'5 4.7
2016-Jul-28 07:32N 34°41' E 135°11'0 0.0
2016-Jul-28 06:32N 34°41' E 135°11'0 0.0
2016-Jul-28 05:32N 34°41' E 135°11'2 2.5
2016-Jul-28 04:33N 34°38' E 135°11'3 2.8
2016-Jul-28 03:33N 34°37' E 135°14'4 4.1
2016-Jul-28 02:31N 34°41' E 135°11'0 0.0
2016-Jul-28 01:19N 34°41' E 135°11'0 0.0
2016-Jul-28 00:31N 34°41' E 135°11'0 0.0
2016-Jul-27 23:25N 34°41' E 135°11'0 0.0
2016-Jul-27 22:31N 34°41' E 135°11'0 0.0
2016-Jul-27 21:19N 34°41' E 135°11'0 0.0
2016-Jul-27 20:31N 34°41' E 135°11'0 0.0
2016-Jul-27 19:31N 34°41' E 135°11'0 0.0
2016-Jul-27 18:31N 34°41' E 135°11'0 0.0
2016-Jul-27 17:31N 34°41' E 135°11'0 0.0
2016-Jul-27 16:25N 34°41' E 135°11'0 0.0
2016-Jul-27 15:31N 34°41' E 135°11'0 0.0
2016-Jul-27 14:31N 34°41' E 135°11'0 0.0
2016-Jul-27 13:31N 34°41' E 135°11'0 0.0
2016-Jul-27 12:31N 34°41' E 135°11'8 8.5
2016-Jul-27 11:34N 34°35' E 135°04'3 3.0
2016-Jul-27 10:33N 34°37' E 135°07'5 5.0
2016-Jul-27 09:30N 34°41' E 135°11'5 5.1
2016-Jul-27 08:33N 34°38' E 135°07'5 4.2
2016-Jul-27 07:25N 34°41' E 135°11'0 0.0
2016-Jul-27 06:31N 34°41' E 135°11'0 0.0
2016-Jul-27 05:31N 34°41' E 135°11'3 2.8
2016-Jul-27 04:33N 34°38' E 135°11'3 2.7
2016-Jul-27 03:33N 34°37' E 135°13'5 4.2
2016-Jul-27 02:29N 34°41' E 135°11'0 0.0
2016-Jul-27 01:23N 34°41' E 135°11'0 0.0
2016-Jul-27 00:23N 34°41' E 135°11'0 0.0
2016-Jul-26 23:29N 34°41' E 135°11'0 0.0
2016-Jul-26 22:29N 34°41' E 135°11'0 0.0
2016-Jul-26 21:29N 34°41' E 135°11'0 0.0
2016-Jul-26 20:23N 34°41' E 135°11'0 0.0
2016-Jul-26 19:29N 34°41' E 135°11'0 0.0
2016-Jul-26 18:23N 34°41' E 135°11'0 0.0
2016-Jul-26 17:29N 34°41' E 135°11'0 0.0
2016-Jul-26 16:29N 34°41' E 135°11'0 0.0
2016-Jul-26 15:29N 34°41' E 135°11'0 0.0
2016-Jul-26 14:29N 34°41' E 135°11'0 0.0
2016-Jul-26 13:29N 34°41' E 135°11'0 0.0
2016-Jul-26 12:29N 34°41' E 135°11'8 9.0
2016-Jul-26 11:33N 34°35' E 135°04'4 4.3
2016-Jul-26 10:33N 34°37' E 135°08'4 4.1
2016-Jul-26 09:32N 34°41' E 135°11'4 4.4
2016-Jul-26 08:32N 34°38' E 135°08'4 4.3
2016-Jul-26 07:32N 34°41' E 135°11'0 0.0
2016-Jul-26 06:32N 34°41' E 135°11'0 0.0
2016-Jul-26 05:32N 34°41' E 135°11'2 2.5
2016-Jul-26 04:33N 34°38' E 135°11'3 2.9
2016-Jul-26 03:33N 34°37' E 135°14'4 3.6
2016-Jul-26 02:21N 34°41' E 135°11'0 0.0
2016-Jul-26 01:33N 34°41' E 135°11'0 0.0
2016-Jul-26 00:33N 34°41' E 135°11'0 0.0
2016-Jul-25 23:33N 34°41' E 135°11'0 0.0
2016-Jul-25 22:27N 34°41' E 135°11'0 0.0
2016-Jul-25 21:33N 34°41' E 135°11'0 0.0
2016-Jul-25 20:33N 34°41' E 135°11'0 0.0
2016-Jul-25 19:33N 34°41' E 135°11'0 0.0
2016-Jul-25 18:33N 34°41' E 135°11'0 0.0
2016-Jul-25 17:33N 34°41' E 135°11'0 0.0
2016-Jul-25 16:27N 34°41' E 135°11'0 0.0
2016-Jul-25 15:33N 34°41' E 135°11'0 0.0
2016-Jul-25 14:32N 34°41' E 135°11'0 0.0
2016-Jul-25 13:15N 34°41' E 135°11'0 0.0
2016-Jul-25 12:27N 34°41' E 135°11'6 7.1
2016-Jul-25 11:33N 34°36' E 135°06'1 0.9
2016-Jul-25 10:33N 34°37' E 135°07'5 5.2
2016-Jul-25 09:31N 34°41' E 135°11'4 4.5
2016-Jul-25 08:33N 34°38' E 135°07'4 4.2
2016-Jul-25 07:30N 34°41' E 135°11'0 0.0
2016-Jul-25 06:30N 34°41' E 135°11'0 0.0
2016-Jul-25 05:24N 34°41' E 135°11'2 2.5
2016-Jul-25 04:33N 34°39' E 135°11'2 2.0
2016-Jul-25 03:34N 34°37' E 135°13'4 3.4
2016-Jul-25 02:28N 34°41' E 135°11'0 0.0
2016-Jul-25 01:28N 34°41' E 135°11'0 0.0
2016-Jul-25 00:28N 34°41' E 135°11'0 0.0
2016-Jul-24 23:28N 34°41' E 135°11'0 0.0
2016-Jul-24 22:28N 34°41' E 135°11'0 0.0
2016-Jul-24 21:28N 34°41' E 135°11'0 0.0
2016-Jul-24 20:28N 34°41' E 135°11'0 0.0
2016-Jul-24 19:28N 34°41' E 135°11'0 0.0
2016-Jul-24 18:28N 34°41' E 135°11'0 0.0
2016-Jul-24 17:28N 34°41' E 135°11'0 0.0
2016-Jul-24 16:28N 34°41' E 135°11'0 0.0
2016-Jul-24 15:28N 34°41' E 135°11'0 0.0
2016-Jul-24 14:16N 34°41' E 135°11'0 0.0
2016-Jul-24 13:22N 34°41' E 135°11'0 0.0
2016-Jul-24 12:33N 34°41' E 135°11'1010.1
2016-Jul-24 11:33N 34°34' E 135°02'4 4.4
2016-Jul-24 10:33N 34°36' E 135°07'6 5.7
2016-Jul-24 09:30N 34°41' E 135°11'1 0.9
2016-Jul-24 08:34N 34°40' E 135°12'3 3.2
2016-Jul-24 07:33N 34°37' E 135°13'4 3.4
2016-Jul-24 06:22N 34°41' E 135°11'0 0.0
2016-Jul-24 05:28N 34°41' E 135°11'2 2.1
2016-Jul-24 04:33N 34°39' E 135°11'2 1.6
2016-Jul-24 03:33N 34°38' E 135°12'3 3.0
2016-Jul-24 02:27N 34°41' E 135°11'0 0.0
2016-Jul-24 01:33N 34°41' E 135°11'0 0.0
2016-Jul-24 00:33N 34°41' E 135°11'0 0.0
2016-Jul-23 23:33N 34°41' E 135°11'0 0.0
2016-Jul-23 22:33N 34°41' E 135°11'0 0.0
2016-Jul-23 21:33N 34°41' E 135°11'0 0.0
2016-Jul-23 20:33N 34°41' E 135°11'0 0.0
2016-Jul-23 19:33N 34°41' E 135°11'0 0.0
2016-Jul-23 18:33N 34°41' E 135°11'0 0.0
2016-Jul-23 17:33N 34°41' E 135°11'0 0.0
2016-Jul-23 16:33N 34°41' E 135°11'0 0.0
2016-Jul-23 15:27N 34°41' E 135°11'0 0.0
2016-Jul-23 14:27N 34°41' E 135°11'0 0.0
2016-Jul-23 13:21N 34°41' E 135°11'0 0.0
2016-Jul-23 12:33N 34°41' E 135°11'6 6.0
2016-Jul-23 11:33N 34°42' E 135°19'4 4.3
2016-Jul-23 10:34N 34°38' E 135°16'5 4.6
2016-Jul-23 09:33N 34°41' E 135°11'1 0.9
2016-Jul-23 08:33N 34°40' E 135°12'4 3.5
2016-Jul-23 07:33N 34°37' E 135°14'4 3.7
2016-Jul-23 06:22N 34°41' E 135°11'2 1.1
2016-Jul-23 04:33N 34°39' E 135°11'2 2.0
2016-Jul-23 03:33N 34°37' E 135°13'4 3.4
2016-Jul-23 02:31N 34°41' E 135°11'0 0.0
2016-Jul-23 01:31N 34°41' E 135°11'0 0.0
2016-Jul-23 00:31N 34°41' E 135°11'0 0.0
2016-Jul-22 23:19N 34°41' E 135°11'0 0.0
2016-Jul-22 22:31N 34°41' E 135°11'0 0.0
2016-Jul-22 21:31N 34°41' E 135°11'0 0.0
2016-Jul-22 20:31N 34°41' E 135°11'0 0.0
2016-Jul-22 19:31N 34°41' E 135°11'0 0.0
2016-Jul-22 18:31N 34°41' E 135°11'0 0.0
2016-Jul-22 17:31N 34°41' E 135°11'0 0.0
2016-Jul-22 16:13N 34°41' E 135°11'0 0.0
2016-Jul-22 15:31N 34°41' E 135°11'0 0.0
2016-Jul-22 14:31N 34°41' E 135°11'0 0.0
2016-Jul-22 13:25N 34°41' E 135°11'0 0.0
2016-Jul-22 12:31N 34°41' E 135°11'7 7.1
2016-Jul-22 11:33N 34°36' E 135°06'1 1.4
2016-Jul-22 10:33N 34°37' E 135°07'6 5.3
2016-Jul-22 09:31N 34°41' E 135°11'5 5.1
2016-Jul-22 08:33N 34°37' E 135°07'5 4.4
2016-Jul-22 07:28N 34°41' E 135°11'2 0.7
2016-Jul-22 04:33N 34°39' E 135°11'2 2.0
2016-Jul-22 03:33N 34°37' E 135°13'4 3.4
2016-Jul-22 02:28N 34°41' E 135°11'0 0.0
2016-Jul-22 01:22N 34°41' E 135°11'0 0.0
2016-Jul-22 00:28N 34°41' E 135°11'0 0.0
2016-Jul-21 23:16N 34°41' E 135°11'0 0.0
2016-Jul-21 22:28N 34°41' E 135°11'0 0.0
2016-Jul-21 21:28N 34°41' E 135°11'0 0.0
2016-Jul-21 20:28N 34°41' E 135°11'0 0.0
2016-Jul-21 19:28N 34°41' E 135°11'0 0.0
2016-Jul-21 18:28N 34°41' E 135°11'0 0.0
2016-Jul-21 17:28N 34°41' E 135°11'0 0.0
2016-Jul-21 16:28N 34°41' E 135°11'0 0.0
2016-Jul-21 15:28N 34°41' E 135°11'0 0.0
2016-Jul-21 14:28N 34°41' E 135°11'0 0.0
2016-Jul-21 13:28N 34°41' E 135°11'0 0.0
2016-Jul-21 12:29N 34°41' E 135°11'7 7.6
2016-Jul-21 11:33N 34°35' E 135°06'1 1.3
2016-Jul-21 10:34N 34°37' E 135°06'6 6.0
2016-Jul-21 09:33N 34°41' E 135°11'5 4.9
2016-Jul-21 08:33N 34°37' E 135°07'5 4.8
2016-Jul-21 07:33N 34°41' E 135°11'0 0.0
2016-Jul-21 06:33N 34°41' E 135°11'0 0.0
2016-Jul-21 05:33N 34°41' E 135°11'2 2.1
2016-Jul-21 04:33N 34°39' E 135°11'2 2.0
2016-Jul-21 03:33N 34°37' E 135°13'4 3.5
2016-Jul-21 02:29N 34°41' E 135°11'0 0.0
2016-Jul-21 01:29N 34°41' E 135°11'0 0.0
2016-Jul-21 00:29N 34°41' E 135°11'0 0.0
2016-Jul-20 23:29N 34°41' E 135°11'0 0.0
2016-Jul-20 22:29N 34°41' E 135°11'0 0.0
2016-Jul-20 21:29N 34°41' E 135°11'0 0.0
2016-Jul-20 20:17N 34°41' E 135°11'0 0.0
2016-Jul-20 19:29N 34°41' E 135°11'0 0.0
2016-Jul-20 18:29N 34°41' E 135°11'0 0.0
2016-Jul-20 17:29N 34°41' E 135°11'0 0.0
2016-Jul-20 16:29N 34°41' E 135°11'0 0.0
2016-Jul-20 15:29N 34°41' E 135°11'0 0.0
2016-Jul-20 14:23N 34°41' E 135°11'0 0.0
2016-Jul-20 13:29N 34°41' E 135°11'0 0.0
2016-Jul-20 12:29N 34°41' E 135°11'7 7.3
2016-Jul-20 11:34N 34°36' E 135°06'1 1.0
2016-Jul-20 10:33N 34°37' E 135°06'6 5.8
2016-Jul-20 09:31N 34°41' E 135°11'5 4.9
2016-Jul-20 08:33N 34°37' E 135°07'5 4.7
2016-Jul-20 07:33N 34°41' E 135°11'0 0.0
2016-Jul-20 06:27N 34°41' E 135°11'0 0.0
2016-Jul-20 05:27N 34°41' E 135°11'2 2.5
2016-Jul-20 04:33N 34°39' E 135°11'2 1.9
2016-Jul-20 03:33N 34°37' E 135°13'4 3.6
2016-Jul-20 02:32N 34°41' E 135°11'0 0.0
2016-Jul-20 01:32N 34°41' E 135°11'0 0.0
2016-Jul-20 00:32N 34°41' E 135°11'0 0.0
2016-Jul-19 23:32N 34°41' E 135°11'0 0.0
2016-Jul-19 22:32N 34°41' E 135°11'0 0.0
2016-Jul-19 21:32N 34°41' E 135°11'0 0.0
2016-Jul-19 20:32N 34°41' E 135°11'0 0.0
2016-Jul-19 19:32N 34°41' E 135°11'0 0.0
2016-Jul-19 18:32N 34°41' E 135°11'0 0.0
2016-Jul-19 17:32N 34°41' E 135°11'0 0.0
2016-Jul-19 16:32N 34°41' E 135°11'  
Track history (hours):
 
Tides and Currents Weather Stations Pressure Air Temp Water Temp Dewpoint Dewpoint Depression Visibility Wind Speed Wind Dir Waves Ship Positions

Luminous Kobe-2

Last reported at 2016-Jul-29 15:32 UTC. Time now 2016-Jul-29 15:59 UTC.
Position N 34°41' E 135°11'.

Length 105 m; draft 4.5 m.

Type: Passenger vessel. MMSI: 431000469.

Date/timePositionNaut miles runAvg speedWind from/ knotsBaromVisibWave heightAir tempDewpointWater temp
2016-Jul-29 15:32N 34°41' E 135°11'0 0.0
2016-Jul-29 14:32N 34°41' E 135°11'0 0.0
2016-Jul-29 13:32N 34°41' E 135°11'0 0.0
2016-Jul-29 12:32N 34°41' E 135°11'6 6.2
2016-Jul-29 11:33N 34°36' E 135°07'1 0.8
2016-Jul-29 10:33N 34°37' E 135°07'6 5.3
2016-Jul-29 09:31N 34°41' E 135°11'5 4.8
2016-Jul-29 08:33N 34°38' E 135°07'5 4.4
2016-Jul-29 07:30N 34°41' E 135°11'0 0.0
2016-Jul-29 06:30N 34°41' E 135°11'0 0.0
2016-Jul-29 05:24N 34°41' E 135°11'3 3.0
2016-Jul-29 04:33N 34°38' E 135°11'3 3.0
2016-Jul-29 03:33N 34°37' E 135°14'4 3.6
2016-Jul-29 02:23N 34°41' E 135°11'0 0.0
2016-Jul-29 01:29N 34°41' E 135°11'0 0.0
2016-Jul-29 00:29N 34°41' E 135°11'0 0.0
2016-Jul-28 23:29N 34°41' E 135°11'0 0.0
2016-Jul-28 22:23N 34°41' E 135°11'0 0.0
2016-Jul-28 21:23N 34°41' E 135°11'0 0.0
2016-Jul-28 20:29N 34°41' E 135°11'0 0.0
2016-Jul-28 19:29N 34°41' E 135°11'0 0.0
2016-Jul-28 18:17N 34°41' E 135°11'0 0.0
2016-Jul-28 17:29N 34°41' E 135°11'0 0.0
2016-Jul-28 16:29N 34°41' E 135°11'0 0.0
2016-Jul-28 15:29N 34°41' E 135°11'0 0.0
2016-Jul-28 14:29N 34°41' E 135°11'0 0.0
2016-Jul-28 13:29N 34°41' E 135°11'0 0.0
2016-Jul-28 12:29N 34°41' E 135°11'7 7.6
2016-Jul-28 11:33N 34°35' E 135°06'2 1.7
2016-Jul-28 10:33N 34°37' E 135°07'5 5.0
2016-Jul-28 09:28N 34°41' E 135°11'5 5.1
2016-Jul-28 08:33N 34°38' E 135°07'5 4.7
2016-Jul-28 07:32N 34°41' E 135°11'0 0.0
2016-Jul-28 06:32N 34°41' E 135°11'0 0.0
2016-Jul-28 05:32N 34°41' E 135°11'2 2.5
2016-Jul-28 04:33N 34°38' E 135°11'3 2.8
2016-Jul-28 03:33N 34°37' E 135°14'4 4.1
2016-Jul-28 02:31N 34°41' E 135°11'0 0.0
2016-Jul-28 01:19N 34°41' E 135°11'0 0.0
2016-Jul-28 00:31N 34°41' E 135°11'0 0.0
2016-Jul-27 23:25N 34°41' E 135°11'0 0.0
2016-Jul-27 22:31N 34°41' E 135°11'0 0.0
2016-Jul-27 21:19N 34°41' E 135°11'0 0.0
2016-Jul-27 20:31N 34°41' E 135°11'0 0.0
2016-Jul-27 19:31N 34°41' E 135°11'0 0.0
2016-Jul-27 18:31N 34°41' E 135°11'0 0.0
2016-Jul-27 17:31N 34°41' E 135°11'0 0.0
2016-Jul-27 16:25N 34°41' E 135°11'0 0.0
2016-Jul-27 15:31N 34°41' E 135°11'0 0.0
2016-Jul-27 14:31N 34°41' E 135°11'0 0.0
2016-Jul-27 13:31N 34°41' E 135°11'0 0.0
2016-Jul-27 12:31N 34°41' E 135°11'8 8.5
2016-Jul-27 11:34N 34°35' E 135°04'3 3.0
2016-Jul-27 10:33N 34°37' E 135°07'5 5.0
2016-Jul-27 09:30N 34°41' E 135°11'5 5.1
2016-Jul-27 08:33N 34°38' E 135°07'5 4.2
2016-Jul-27 07:25N 34°41' E 135°11'0 0.0
2016-Jul-27 06:31N 34°41' E 135°11'0 0.0
2016-Jul-27 05:31N 34°41' E 135°11'3 2.8
2016-Jul-27 04:33N 34°38' E 135°11'3 2.7
2016-Jul-27 03:33N 34°37' E 135°13'5 4.2
2016-Jul-27 02:29N 34°41' E 135°11'0 0.0
2016-Jul-27 01:23N 34°41' E 135°11'0 0.0
2016-Jul-27 00:23N 34°41' E 135°11'0 0.0
2016-Jul-26 23:29N 34°41' E 135°11'0 0.0
2016-Jul-26 22:29N 34°41' E 135°11'0 0.0
2016-Jul-26 21:29N 34°41' E 135°11'0 0.0
2016-Jul-26 20:23N 34°41' E 135°11'0 0.0
2016-Jul-26 19:29N 34°41' E 135°11'0 0.0
2016-Jul-26 18:23N 34°41' E 135°11'0 0.0
2016-Jul-26 17:29N 34°41' E 135°11'0 0.0
2016-Jul-26 16:29N 34°41' E 135°11'0 0.0
2016-Jul-26 15:29N 34°41' E 135°11'0 0.0
2016-Jul-26 14:29N 34°41' E 135°11'0 0.0
2016-Jul-26 13:29N 34°41' E 135°11'0 0.0
2016-Jul-26 12:29N 34°41' E 135°11'8 9.0
2016-Jul-26 11:33N 34°35' E 135°04'4 4.3
2016-Jul-26 10:33N 34°37' E 135°08'4 4.1
2016-Jul-26 09:32N 34°41' E 135°11'4 4.4
2016-Jul-26 08:32N 34°38' E 135°08'4 4.3
2016-Jul-26 07:32N 34°41' E 135°11'0 0.0
2016-Jul-26 06:32N 34°41' E 135°11'0 0.0
2016-Jul-26 05:32N 34°41' E 135°11'2 2.5
2016-Jul-26 04:33N 34°38' E 135°11'3 2.9
2016-Jul-26 03:33N 34°37' E 135°14'4 3.6
2016-Jul-26 02:21N 34°41' E 135°11'0 0.0
2016-Jul-26 01:33N 34°41' E 135°11'0 0.0
2016-Jul-26 00:33N 34°41' E 135°11'0 0.0
2016-Jul-25 23:33N 34°41' E 135°11'0 0.0
2016-Jul-25 22:27N 34°41' E 135°11'0 0.0
2016-Jul-25 21:33N 34°41' E 135°11'0 0.0
2016-Jul-25 20:33N 34°41' E 135°11'0 0.0
2016-Jul-25 19:33N 34°41' E 135°11'0 0.0
2016-Jul-25 18:33N 34°41' E 135°11'0 0.0
2016-Jul-25 17:33N 34°41' E 135°11'0 0.0
2016-Jul-25 16:27N 34°41' E 135°11'0 0.0
2016-Jul-25 15:33N 34°41' E 135°11'0 0.0
2016-Jul-25 14:32N 34°41' E 135°11'0 0.0
2016-Jul-25 13:15N 34°41' E 135°11'0 0.0
2016-Jul-25 12:27N 34°41' E 135°11'6 7.1
2016-Jul-25 11:33N 34°36' E 135°06'1 0.9
2016-Jul-25 10:33N 34°37' E 135°07'5 5.2
2016-Jul-25 09:31N 34°41' E 135°11'4 4.5
2016-Jul-25 08:33N 34°38' E 135°07'4 4.2
2016-Jul-25 07:30N 34°41' E 135°11'0 0.0
2016-Jul-25 06:30N 34°41' E 135°11'0 0.0
2016-Jul-25 05:24N 34°41' E 135°11'2 2.5
2016-Jul-25 04:33N 34°39' E 135°11'2 2.0
2016-Jul-25 03:34N 34°37' E 135°13'4 3.4
2016-Jul-25 02:28N 34°41' E 135°11'0 0.0
2016-Jul-25 01:28N 34°41' E 135°11'0 0.0
2016-Jul-25 00:28N 34°41' E 135°11'0 0.0
2016-Jul-24 23:28N 34°41' E 135°11'0 0.0
2016-Jul-24 22:28N 34°41' E 135°11'0 0.0
2016-Jul-24 21:28N 34°41' E 135°11'0 0.0
2016-Jul-24 20:28N 34°41' E 135°11'0 0.0
2016-Jul-24 19:28N 34°41' E 135°11'0 0.0
2016-Jul-24 18:28N 34°41' E 135°11'0 0.0
2016-Jul-24 17:28N 34°41' E 135°11'0 0.0
2016-Jul-24 16:28N 34°41' E 135°11'0 0.0
2016-Jul-24 15:28N 34°41' E 135°11'0 0.0
2016-Jul-24 14:16N 34°41' E 135°11'0 0.0
2016-Jul-24 13:22N 34°41' E 135°11'0 0.0
2016-Jul-24 12:33N 34°41' E 135°11'1010.1
2016-Jul-24 11:33N 34°34' E 135°02'4 4.4
2016-Jul-24 10:33N 34°36' E 135°07'6 5.7
2016-Jul-24 09:30N 34°41' E 135°11'1 0.9
2016-Jul-24 08:34N 34°40' E 135°12'3 3.2
2016-Jul-24 07:33N 34°37' E 135°13'4 3.4
2016-Jul-24 06:22N 34°41' E 135°11'0 0.0
2016-Jul-24 05:28N 34°41' E 135°11'2 2.1
2016-Jul-24 04:33N 34°39' E 135°11'2 1.6
2016-Jul-24 03:33N 34°38' E 135°12'3 3.0
2016-Jul-24 02:27N 34°41' E 135°11'0 0.0
2016-Jul-24 01:33N 34°41' E 135°11'0 0.0
2016-Jul-24 00:33N 34°41' E 135°11'0 0.0
2016-Jul-23 23:33N 34°41' E 135°11'0 0.0
2016-Jul-23 22:33N 34°41' E 135°11'0 0.0
2016-Jul-23 21:33N 34°41' E 135°11'0 0.0
2016-Jul-23 20:33N 34°41' E 135°11'0 0.0
2016-Jul-23 19:33N 34°41' E 135°11'0 0.0
2016-Jul-23 18:33N 34°41' E 135°11'0 0.0
2016-Jul-23 17:33N 34°41' E 135°11'0 0.0
2016-Jul-23 16:33N 34°41' E 135°11'0 0.0
2016-Jul-23 15:27N 34°41' E 135°11'0 0.0
2016-Jul-23 14:27N 34°41' E 135°11'0 0.0
2016-Jul-23 13:21N 34°41' E 135°11'0 0.0
2016-Jul-23 12:33N 34°41' E 135°11'6 6.0
2016-Jul-23 11:33N 34°42' E 135°19'4 4.3
2016-Jul-23 10:34N 34°38' E 135°16'5 4.6
2016-Jul-23 09:33N 34°41' E 135°11'1 0.9
2016-Jul-23 08:33N 34°40' E 135°12'4 3.5
2016-Jul-23 07:33N 34°37' E 135°14'4 3.7
2016-Jul-23 06:22N 34°41' E 135°11'2 1.1
2016-Jul-23 04:33N 34°39' E 135°11'2 2.0
2016-Jul-23 03:33N 34°37' E 135°13'4 3.4
2016-Jul-23 02:31N 34°41' E 135°11'0 0.0
2016-Jul-23 01:31N 34°41' E 135°11'0 0.0
2016-Jul-23 00:31N 34°41' E 135°11'0 0.0
2016-Jul-22 23:19N 34°41' E 135°11'0 0.0
2016-Jul-22 22:31N 34°41' E 135°11'0 0.0
2016-Jul-22 21:31N 34°41' E 135°11'0 0.0
2016-Jul-22 20:31N 34°41' E 135°11'0 0.0
2016-Jul-22 19:31N 34°41' E 135°11'0 0.0
2016-Jul-22 18:31N 34°41' E 135°11'0 0.0
2016-Jul-22 17:31N 34°41' E 135°11'0 0.0
2016-Jul-22 16:13N 34°41' E 135°11'0 0.0
2016-Jul-22 15:31N 34°41' E 135°11'0 0.0
2016-Jul-22 14:31N 34°41' E 135°11'0 0.0
2016-Jul-22 13:25N 34°41' E 135°11'0 0.0
2016-Jul-22 12:31N 34°41' E 135°11'7 7.1
2016-Jul-22 11:33N 34°36' E 135°06'1 1.4
2016-Jul-22 10:33N 34°37' E 135°07'6 5.3
2016-Jul-22 09:31N 34°41' E 135°11'5 5.1
2016-Jul-22 08:33N 34°37' E 135°07'5 4.4
2016-Jul-22 07:28N 34°41' E 135°11'2 0.7
2016-Jul-22 04:33N 34°39' E 135°11'2 2.0
2016-Jul-22 03:33N 34°37' E 135°13'4 3.4
2016-Jul-22 02:28N 34°41' E 135°11'0 0.0
2016-Jul-22 01:22N 34°41' E 135°11'0 0.0
2016-Jul-22 00:28N 34°41' E 135°11'0 0.0
2016-Jul-21 23:16N 34°41' E 135°11'0 0.0
2016-Jul-21 22:28N 34°41' E 135°11'0 0.0
2016-Jul-21 21:28N 34°41' E 135°11'0 0.0
2016-Jul-21 20:28N 34°41' E 135°11'0 0.0
2016-Jul-21 19:28N 34°41' E 135°11'0 0.0
2016-Jul-21 18:28N 34°41' E 135°11'0 0.0
2016-Jul-21 17:28N 34°41' E 135°11'0 0.0
2016-Jul-21 16:28N 34°41' E 135°11'0 0.0
2016-Jul-21 15:28N 34°41' E 135°11'0 0.0
2016-Jul-21 14:28N 34°41' E 135°11'0 0.0
2016-Jul-21 13:28N 34°41' E 135°11'0 0.0
2016-Jul-21 12:29N 34°41' E 135°11'7 7.6
2016-Jul-21 11:33N 34°35' E 135°06'1 1.3
2016-Jul-21 10:34N 34°37' E 135°06'6 6.0
2016-Jul-21 09:33N 34°41' E 135°11'5 4.9
2016-Jul-21 08:33N 34°37' E 135°07'5 4.8
2016-Jul-21 07:33N 34°41' E 135°11'0 0.0
2016-Jul-21 06:33N 34°41' E 135°11'0 0.0
2016-Jul-21 05:33N 34°41' E 135°11'2 2.1
2016-Jul-21 04:33N 34°39' E 135°11'2 2.0
2016-Jul-21 03:33N 34°37' E 135°13'4 3.5
2016-Jul-21 02:29N 34°41' E 135°11'0 0.0
2016-Jul-21 01:29N 34°41' E 135°11'0 0.0
2016-Jul-21 00:29N 34°41' E 135°11'0 0.0
2016-Jul-20 23:29N 34°41' E 135°11'0 0.0
2016-Jul-20 22:29N 34°41' E 135°11'0 0.0
2016-Jul-20 21:29N 34°41' E 135°11'0 0.0
2016-Jul-20 20:17N 34°41' E 135°11'0 0.0
2016-Jul-20 19:29N 34°41' E 135°11'0 0.0
2016-Jul-20 18:29N 34°41' E 135°11'0 0.0
2016-Jul-20 17:29N 34°41' E 135°11'0 0.0
2016-Jul-20 16:29N 34°41' E 135°11'0 0.0
2016-Jul-20 15:29N 34°41' E 135°11'0 0.0
2016-Jul-20 14:23N 34°41' E 135°11'0 0.0
2016-Jul-20 13:29N 34°41' E 135°11'0 0.0
2016-Jul-20 12:29N 34°41' E 135°11'7 7.3
2016-Jul-20 11:34N 34°36' E 135°06'1 1.0
2016-Jul-20 10:33N 34°37' E 135°06'6 5.8
2016-Jul-20 09:31N 34°41' E 135°11'5 4.9
2016-Jul-20 08:33N 34°37' E 135°07'5 4.7
2016-Jul-20 07:33N 34°41' E 135°11'0 0.0
2016-Jul-20 06:27N 34°41' E 135°11'0 0.0
2016-Jul-20 05:27N 34°41' E 135°11'2 2.5
2016-Jul-20 04:33N 34°39' E 135°11'2 1.9
2016-Jul-20 03:33N 34°37' E 135°13'4 3.6
2016-Jul-20 02:32N 34°41' E 135°11'0 0.0
2016-Jul-20 01:32N 34°41' E 135°11'0 0.0
2016-Jul-20 00:32N 34°41' E 135°11'0 0.0
2016-Jul-19 23:32N 34°41' E 135°11'0 0.0
2016-Jul-19 22:32N 34°41' E 135°11'0 0.0
2016-Jul-19 21:32N 34°41' E 135°11'0 0.0
2016-Jul-19 20:32N 34°41' E 135°11'0 0.0
2016-Jul-19 19:32N 34°41' E 135°11'0 0.0
2016-Jul-19 18:32N 34°41' E 135°11'0 0.0
2016-Jul-19 17:32N 34°41' E 135°11'0 0.0
2016-Jul-19 16:32N 34°41' E 135°11'  

Dump ship's entire track history